Time;durP1;ratioP1;P1;durP2;ratioP2;P2;SDS_P1;SDS_P2;PMS_P1;PMS_P2;Temp;Humidity;BMP_temperature;BMP_pressure;BME280_temperature;BME280_humidity;BME280_pressure;Samples;Min_cycle;Max_cycle;Signal;HPM_P1;HPM_P2
2021/09/21 00:00:47;;;;;;;12.03;7.93;;;19.00;47.60;;;;;;5070017;28;20460;-91
2021/09/21 00:03:14;;;;;;;12.10;8.30;;;19.00;50.00;;;;;;5070297;28;20539;-91
2021/09/21 00:05:40;;;;;;;11.17;7.80;;;19.30;49.90;;;;;;5069376;28;20578;-91
2021/09/21 00:08:07;;;;;;;14.77;10.00;;;19.40;49.30;;;;;;5070686;28;20443;-91
2021/09/21 00:10:34;;;;;;;9.27;7.70;;;19.60;49.30;;;;;;5066371;28;20847;-92
2021/09/21 00:13:02;;;;;;;9.60;7.50;;;19.60;49.60;;;;;;5060179;28;20502;-92
2021/09/21 00:15:31;;;;;;;12.17;9.20;;;19.60;49.50;;;;;;5060607;28;20456;-92
2021/09/21 00:17:57;;;;;;;12.90;9.03;;;19.60;49.30;;;;;;5060539;28;20432;-92
2021/09/21 00:20:25;;;;;;;16.60;10.47;;;19.80;50.30;;;;;;5059757;28;21063;-92
2021/09/21 00:22:51;;;;;;;14.93;10.37;;;19.90;49.00;;;;;;5060858;28;20973;-92
2021/09/21 00:25:19;;;;;;;15.80;9.50;;;19.80;48.30;;;;;;5062403;28;20440;-91
2021/09/21 00:27:46;;;;;;;10.33;7.63;;;19.80;49.50;;;;;;5068223;28;20451;-91
2021/09/21 00:30:16;;;;;;;10.93;8.40;;;19.90;48.70;;;;;;5068116;28;20491;-91
2021/09/21 00:32:48;;;;;;;13.93;9.13;;;19.80;47.80;;;;;;5067663;28;20517;-92
2021/09/21 00:35:15;;;;;;;17.13;11.37;;;19.70;49.10;;;;;;5070051;28;20462;-91
2021/09/21 00:37:42;;;;;;;12.13;6.93;;;19.40;47.10;;;;;;5062089;28;20428;-92
2021/09/21 00:40:10;;;;;;;11.73;8.40;;;19.20;50.30;;;;;;5061446;28;20492;-91
2021/09/21 00:42:41;;;;;;;9.33;7.83;;;19.40;49.10;;;;;;5062330;28;20484;-92
2021/09/21 00:45:08;;;;;;;12.47;9.17;;;19.50;48.00;;;;;;5062138;28;20495;-92
2021/09/21 00:47:35;;;;;;;15.53;10.90;;;19.30;49.10;;;;;;5061498;28;20448;-92
2021/09/21 00:50:04;;;;;;;10.47;6.77;;;19.50;48.20;;;;;;5061708;28;20555;-92
2021/09/21 00:52:31;;;;;;;20.80;8.20;;;19.50;50.60;;;;;;5059693;28;20441;-92
2021/09/21 00:54:58;;;;;;;13.13;8.73;;;19.70;49.60;;;;;;5058942;28;20444;-91
2021/09/21 00:57:26;;;;;;;10.63;7.97;;;19.80;49.50;;;;;;5065704;28;20455;-91
2021/09/21 00:59:53;;;;;;;10.10;7.27;;;20.00;49.70;;;;;;5067068;28;20514;-91
2021/09/21 01:02:20;;;;;;;15.03;10.20;;;20.00;47.50;;;;;;5060631;28;20452;-91
2021/09/21 01:04:47;;;;;;;15.70;9.20;;;19.90;47.90;;;;;;5058958;28;20818;-91
2021/09/21 01:07:15;;;;;;;11.40;8.37;;;20.00;47.30;;;;;;5059105;28;20441;-92
2021/09/21 01:09:43;;;;;;;14.90;9.40;;;19.70;48.50;;;;;;5057803;28;20448;-92
2021/09/21 01:12:11;;;;;;;14.03;9.53;;;19.40;48.90;;;;;;5061993;28;20456;-92
2021/09/21 01:14:38;;;;;;;12.53;9.50;;;19.50;48.60;;;;;;5059666;28;20463;-91
2021/09/21 01:17:04;;;;;;;12.80;7.60;;;19.60;49.80;;;;;;5058568;28;20474;-91
2021/09/21 01:19:31;;;;;;;12.73;9.33;;;19.50;49.50;;;;;;5057511;28;20487;-91
2021/09/21 01:22:00;;;;;;;14.10;10.53;;;19.70;49.00;;;;;;5058306;28;20492;-91
2021/09/21 01:24:29;;;;;;;10.33;8.20;;;19.60;48.10;;;;;;5056871;28;20517;-91
2021/09/21 01:26:55;;;;;;;12.70;9.33;;;19.10;50.10;;;;;;5055921;28;20451;-92
2021/09/21 01:29:22;;;;;;;13.10;9.20;;;19.10;50.40;;;;;;5056884;28;20495;-92
2021/09/21 01:31:49;;;;;;;13.20;9.33;;;19.40;49.40;;;;;;5055839;28;20531;-92
2021/09/21 01:34:19;;;;;;;12.03;8.70;;;19.40;49.60;;;;;;5056219;28;20513;-91
2021/09/21 01:36:46;;;;;;;14.20;9.37;;;19.60;48.90;;;;;;5056525;28;20448;-92
2021/09/21 01:39:14;;;;;;;11.17;8.27;;;19.80;50.00;;;;;;5055702;28;20578;-92
2021/09/21 01:41:41;;;;;;;10.20;7.73;;;20.00;48.70;;;;;;5055986;28;20471;-91
2021/09/21 01:44:09;;;;;;;14.60;9.43;;;20.00;47.80;;;;;;5057326;28;20444;-92
2021/09/21 01:46:36;;;;;;;9.70;7.23;;;20.00;49.30;;;;;;5056254;28;20443;-92
2021/09/21 01:49:03;;;;;;;10.60;8.63;;;20.00;48.90;;;;;;5056422;28;20437;-91
2021/09/21 01:51:32;;;;;;;15.90;11.23;;;20.00;49.70;;;;;;5056303;28;20571;-91
2021/09/21 01:54:12;;;;;;;11.57;8.93;;;20.00;48.10;;;;;;5056032;28;20459;-92
2021/09/21 01:59:26;;;;;;;15.73;10.47;;;20.00;48.60;;;;;;5056316;28;20479;-92
2021/09/21 02:01:53;;;;;;;9.60;7.00;;;19.70;49.20;;;;;;5055196;28;20452;-92
2021/09/21 02:04:20;;;;;;;13.73;9.83;;;19.80;49.60;;;;;;5055495;28;20531;-92
2021/09/21 02:06:47;;;;;;;24.00;12.43;;;20.00;50.10;;;;;;5055649;28;20871;-92
2021/09/21 02:09:16;;;;;;;13.50;9.50;;;19.90;46.90;;;;;;5055094;28;20510;-92
2021/09/21 02:11:46;;;;;;;11.90;9.17;;;20.20;49.20;;;;;;5055184;28;20433;-92
2021/09/21 02:14:14;;;;;;;9.60;7.67;;;20.10;47.40;;;;;;5055416;28;20464;-91
2021/09/21 02:16:42;;;;;;;16.50;10.57;;;19.70;49.10;;;;;;5055113;28;20452;-92
2021/09/21 02:19:10;;;;;;;22.67;11.80;;;19.50;47.20;;;;;;5054848;28;20508;-92
2021/09/21 02:21:37;;;;;;;16.50;10.57;;;18.90;48.90;;;;;;5054808;28;20433;-92
2021/09/21 02:24:06;;;;;;;16.40;12.10;;;18.60;50.30;;;;;;5055156;28;20953;-92
2021/09/21 02:26:33;;;;;;;16.33;10.57;;;18.40;50.50;;;;;;5056125;28;20456;-92
2021/09/21 02:29:02;;;;;;;19.30;11.77;;;18.60;51.50;;;;;;5055521;28;20429;-92
2021/09/21 02:31:29;;;;;;;14.17;9.97;;;18.80;51.10;;;;;;5055340;28;20478;-92
2021/09/21 02:33:56;;;;;;;13.37;9.40;;;19.30;50.30;;;;;;5055868;28;20566;-92
2021/09/21 02:36:22;;;;;;;16.43;11.00;;;18.90;50.30;;;;;;5055952;28;20475;-92
2021/09/21 02:38:49;;;;;;;16.07;11.70;;;18.40;50.20;;;;;;5055022;28;20452;-92
2021/09/21 02:41:16;;;;;;;13.47;9.50;;;18.20;51.30;;;;;;5055398;28;20496;-91
2021/09/21 02:43:43;;;;;;;18.53;11.77;;;18.50;50.80;;;;;;5054633;28;20548;-92
2021/09/21 02:46:12;;;;;;;23.40;12.80;;;18.60;50.40;;;;;;5055147;28;20507;-91
2021/09/21 02:48:38;;;;;;;14.97;9.83;;;18.40;50.20;;;;;;5054714;28;20483;-91
2021/09/21 02:51:06;;;;;;;12.30;8.90;;;18.40;51.20;;;;;;5054975;28;20751;-92
2021/09/21 02:53:33;;;;;;;24.73;11.47;;;18.60;53.00;;;;;;5055583;28;20509;-92
2021/09/21 02:56:00;;;;;;;20.03;11.30;;;18.70;52.30;;;;;;5070226;28;20448;-91
2021/09/21 02:58:27;;;;;;;15.87;9.40;;;19.20;51.50;;;;;;5072634;28;20448;-91
2021/09/21 03:00:56;;;;;;;15.90;11.10;;;19.30;51.10;;;;;;5069002;28;20476;-92
2021/09/21 03:03:29;;;;;;;9.17;7.30;;;19.60;50.70;;;;;;5056462;28;20782;-91
2021/09/21 03:05:59;;;;;;;20.90;10.90;;;19.80;50.00;;;;;;5055249;28;20462;-92
2021/09/21 03:08:29;;;;;;;14.53;10.00;;;19.80;49.20;;;;;;5056054;28;20476;-91
2021/09/21 03:19:10;;;;;;;14.50;9.30;;;18.40;50.20;;;;;;5055330;28;20462;-91
2021/09/21 03:21:37;;;;;;;17.20;11.60;;;18.50;50.80;;;;;;5054563;28;20443;-92
2021/09/21 03:24:04;;;;;;;15.60;10.80;;;18.50;52.10;;;;;;5054667;28;20452;-91
2021/09/21 03:26:31;;;;;;;16.70;13.00;;;18.90;50.70;;;;;;5053945;28;20798;-91
2021/09/21 03:28:58;;;;;;;18.87;11.00;;;19.10;50.70;;;;;;5053467;28;20881;-91
2021/09/21 03:31:25;;;;;;;14.20;10.57;;;19.30;51.90;;;;;;5054587;28;20456;-91
2021/09/21 03:33:52;;;;;;;11.27;8.40;;;19.30;50.30;;;;;;5058655;28;20507;-92
2021/09/21 03:36:20;;;;;;;18.13;10.80;;;19.60;50.80;;;;;;5058716;28;20494;-91
2021/09/21 03:38:47;;;;;;;15.53;10.87;;;19.70;50.90;;;;;;5058866;28;20566;-91
2021/09/21 03:41:14;;;;;;;21.30;12.50;;;19.40;49.00;;;;;;5058338;28;20553;-92
2021/09/21 03:43:41;;;;;;;18.30;11.40;;;19.40;49.30;;;;;;5058484;28;20471;-91
2021/09/21 03:46:08;;;;;;;16.40;10.00;;;19.10;48.70;;;;;;5058410;28;20452;-92
2021/09/21 03:48:35;;;;;;;17.00;10.40;;;18.90;49.70;;;;;;5058383;28;20501;-92
2021/09/21 03:51:02;;;;;;;20.27;11.10;;;19.20;50.90;;;;;;5058231;28;20488;-92
2021/09/21 03:53:30;;;;;;;15.20;9.63;;;19.60;49.80;;;;;;5057896;28;20539;-92
2021/09/21 03:55:57;;;;;;;10.70;7.60;;;19.70;49.10;;;;;;5058202;28;20449;-91
2021/09/21 03:58:24;;;;;;;15.70;11.00;;;19.70;50.40;;;;;;5057824;28;20926;-91
2021/09/21 04:00:51;;;;;;;14.03;8.80;;;19.80;49.00;;;;;;5057859;28;20969;-91
2021/09/21 04:03:18;;;;;;;11.67;9.37;;;19.80;50.00;;;;;;5058172;28;20506;-91
2021/09/21 04:05:45;;;;;;;14.47;8.27;;;19.80;49.20;;;;;;5057702;28;20460;-91
2021/09/21 04:08:12;;;;;;;16.40;10.10;;;19.60;50.20;;;;;;5057989;28;20451;-91
2021/09/21 04:10:40;;;;;;;20.47;10.53;;;19.60;48.50;;;;;;5057536;28;20467;-91
2021/09/21 04:13:07;;;;;;;12.33;9.37;;;19.60;48.00;;;;;;5057657;28;20440;-91
2021/09/21 04:15:34;;;;;;;19.93;11.97;;;19.40;48.60;;;;;;5063105;28;20829;-91
2021/09/21 04:18:04;;;;;;;13.97;10.70;;;19.40;49.00;;;;;;5060552;28;20436;-91
2021/09/21 04:20:31;;;;;;;21.30;11.50;;;19.50;49.10;;;;;;5057609;28;20490;-91
2021/09/21 04:22:58;;;;;;;19.83;11.33;;;19.20;48.30;;;;;;5057978;28;20479;-91
2021/09/21 04:25:25;;;;;;;22.93;7.70;;;19.00;48.70;;;;;;5058105;28;20470;-91
2021/09/21 04:27:53;;;;;;;18.00;11.07;;;19.00;51.30;;;;;;5057676;28;20448;-91
2021/09/21 04:30:22;;;;;;;18.23;11.47;;;19.30;51.60;;;;;;5057271;28;21132;-91
2021/09/21 04:32:49;;;;;;;16.70;12.23;;;19.50;49.60;;;;;;5057101;28;20812;-91
2021/09/21 04:35:16;;;;;;;15.37;11.17;;;19.50;49.60;;;;;;5057249;28;20448;-91
2021/09/21 04:37:42;;;;;;;18.30;12.73;;;19.30;50.10;;;;;;5056410;28;20448;-91
2021/09/21 04:40:11;;;;;;;17.17;11.23;;;19.30;50.20;;;;;;5056627;28;20571;-91
2021/09/21 04:42:38;;;;;;;24.23;11.97;;;18.80;49.40;;;;;;5056170;28;20531;-92
2021/09/21 04:45:08;;;;;;;17.60;11.87;;;18.50;50.10;;;;;;5056467;28;20472;-91
2021/09/21 04:47:35;;;;;;;19.27;12.23;;;18.10;50.80;;;;;;5057083;28;20480;-91
2021/09/21 04:50:03;;;;;;;17.03;11.40;;;17.80;52.20;;;;;;5056922;28;20535;-91
2021/09/21 04:52:30;;;;;;;17.13;10.30;;;18.00;53.20;;;;;;5056724;28;20560;-91
2021/09/21 04:54:57;;;;;;;22.13;12.00;;;17.90;51.60;;;;;;5057010;28;20444;-91
2021/09/21 04:57:24;;;;;;;21.23;12.20;;;18.00;52.30;;;;;;5057012;28;20513;-91
2021/09/21 04:59:51;;;;;;;18.90;11.80;;;18.20;51.50;;;;;;5055924;28;20478;-91
2021/09/21 05:02:19;;;;;;;20.13;12.80;;;18.00;51.30;;;;;;5056093;28;20551;-90
2021/09/21 05:04:46;;;;;;;18.97;12.00;;;17.10;52.90;;;;;;5056900;28;20571;-91
2021/09/21 05:07:13;;;;;;;20.23;12.93;;;17.10;54.80;;;;;;5056414;28;20453;-91
2021/09/21 05:09:40;;;;;;;20.97;13.30;;;17.40;53.90;;;;;;5056049;28;20483;-91
2021/09/21 05:12:07;;;;;;;17.73;12.87;;;17.70;52.00;;;;;;5056642;28;20515;-90
2021/09/21 05:14:34;;;;;;;16.63;11.43;;;17.80;52.10;;;;;;5056102;28;20882;-91
2021/09/21 05:17:01;;;;;;;16.53;10.80;;;18.00;52.20;;;;;;5056439;28;20487;-91
2021/09/21 05:19:29;;;;;;;22.83;13.50;;;18.50;52.30;;;;;;5055749;28;20480;-92
2021/09/21 05:21:56;;;;;;;26.00;12.90;;;18.40;50.80;;;;;;5055824;28;20570;-92
2021/09/21 05:24:23;;;;;;;20.80;13.33;;;18.30;51.20;;;;;;5056197;28;20523;-91
2021/09/21 05:26:50;;;;;;;18.40;12.40;;;17.80;51.60;;;;;;5057018;28;20531;-91
2021/09/21 05:29:17;;;;;;;23.43;13.30;;;17.10;54.00;;;;;;5056254;28;20463;-91
2021/09/21 05:31:44;;;;;;;18.47;13.50;;;17.20;54.20;;;;;;5056986;28;20555;-92
2021/09/21 05:34:11;;;;;;;18.60;13.03;;;17.20;54.30;;;;;;5058754;28;20533;-91
2021/09/21 05:36:39;;;;;;;20.57;12.23;;;17.00;54.00;;;;;;5066299;28;20922;-92
2021/09/21 05:39:06;;;;;;;18.57;13.20;;;16.60;55.30;;;;;;5058523;28;20468;-92
2021/09/21 05:41:33;;;;;;;18.20;12.97;;;16.40;55.40;;;;;;5058152;28;20533;-91
2021/09/21 05:44:00;;;;;;;23.50;14.13;;;16.00;54.90;;;;;;5060692;28;20539;-90
2021/09/21 05:46:27;;;;;;;31.20;13.20;;;15.70;56.10;;;;;;5068733;28;20479;-90
2021/09/21 05:48:59;;;;;;;18.93;13.13;;;15.40;56.50;;;;;;5064188;28;20443;-91
2021/09/21 05:51:26;;;;;;;17.77;12.33;;;15.70;56.80;;;;;;5065248;28;20854;-91
2021/09/21 05:53:55;;;;;;;16.67;13.13;;;15.50;55.80;;;;;;5056427;28;20483;-91
2021/09/21 05:56:22;;;;;;;18.03;12.43;;;15.00;57.30;;;;;;5057340;28;20440;-91
2021/09/21 05:58:49;;;;;;;18.27;12.17;;;15.50;56.00;;;;;;5064636;28;20468;-91
2021/09/21 06:01:16;;;;;;;15.40;11.30;;;15.90;54.90;;;;;;5076430;28;20498;-91
2021/09/21 06:03:44;;;;;;;15.47;10.57;;;16.30;55.30;;;;;;5059886;28;20926;-91
2021/09/21 06:06:11;;;;;;;13.73;10.73;;;16.20;55.20;;;;;;5056966;28;20487;-93
2021/09/21 06:08:38;;;;;;;13.87;11.30;;;16.30;56.60;;;;;;5056494;28;20921;-91
2021/09/21 06:11:06;;;;;;;15.90;11.07;;;16.40;53.40;;;;;;5056333;28;20464;-91
2021/09/21 06:13:33;;;;;;;24.10;11.53;;;16.40;55.40;;;;;;5056704;28;20452;-91
2021/09/21 06:16:05;;;;;;;15.83;11.77;;;16.70;53.30;;;;;;5059467;28;20440;-90
2021/09/21 06:18:32;;;;;;;21.87;12.87;;;17.00;50.60;;;;;;5055909;28;20433;-91
2021/09/21 06:20:59;;;;;;;15.90;10.73;;;16.90;51.30;;;;;;5055289;28;20581;-91
2021/09/21 06:23:25;;;;;;;13.33;8.47;;;17.10;52.70;;;;;;5056122;28;20867;-91
2021/09/21 06:25:52;;;;;;;13.37;10.70;;;17.60;53.20;;;;;;5055908;28;20475;-91
2021/09/21 06:28:21;;;;;;;15.43;12.10;;;18.20;49.30;;;;;;5055311;28;20448;-91
2021/09/21 06:30:47;;;;;;;20.40;12.67;;;18.70;48.70;;;;;;5055151;28;20499;-91
2021/09/21 06:33:14;;;;;;;19.43;12.00;;;19.40;47.90;;;;;;5057094;28;20472;-91
2021/09/21 06:35:41;;;;;;;14.27;10.77;;;19.70;47.10;;;;;;5055605;28;20484;-91
2021/09/21 06:38:09;;;;;;;13.57;10.77;;;20.70;45.20;;;;;;5055515;28;20486;-91
2021/09/21 06:40:36;;;;;;;14.67;10.27;;;21.20;43.40;;;;;;5055216;28;20479;-91
2021/09/21 06:43:03;;;;;;;14.27;10.90;;;21.70;40.60;;;;;;5055096;28;20529;-91
2021/09/21 06:45:31;;;;;;;13.47;9.73;;;22.80;40.10;;;;;;5055854;28;20925;-91
2021/09/21 06:47:58;;;;;;;14.73;10.47;;;22.80;39.70;;;;;;5056360;28;20490;-92
2021/09/21 06:50:25;;;;;;;11.20;9.57;;;23.20;38.10;;;;;;5056597;28;20525;-93
2021/09/21 06:52:52;;;;;;;12.03;9.10;;;23.30;37.90;;;;;;5056742;28;20496;-92
2021/09/21 06:55:19;;;;;;;16.37;9.67;;;23.00;37.00;;;;;;5056105;28;20486;-91
2021/09/21 06:57:50;;;;;;;14.00;9.40;;;22.10;37.40;;;;;;5056070;28;20445;-92
2021/09/21 07:00:18;;;;;;;13.60;9.80;;;20.90;40.40;;;;;;5055919;28;20545;-91
2021/09/21 07:02:48;;;;;;;18.43;10.20;;;20.40;40.60;;;;;;5055013;28;20487;-92
2021/09/21 07:05:15;;;;;;;14.23;9.67;;;19.60;42.30;;;;;;5055473;28;20555;-92
2021/09/21 07:07:46;;;;;;;15.77;10.17;;;19.40;43.30;;;;;;5056242;28;20502;-92
2021/09/21 07:10:14;;;;;;;14.90;10.07;;;19.20;43.80;;;;;;5054944;28;20506;-91
2021/09/21 07:12:43;;;;;;;15.87;11.20;;;18.30;44.90;;;;;;5055457;28;20470;-91
2021/09/21 07:15:11;;;;;;;14.67;10.77;;;17.90;47.30;;;;;;5056080;28;20833;-91
2021/09/21 07:17:40;;;;;;;17.70;9.87;;;18.40;46.70;;;;;;5057366;28;20983;-91
2021/09/21 07:20:10;;;;;;;15.20;10.77;;;18.20;46.20;;;;;;5056155;28;20510;-91
2021/09/21 07:22:38;;;;;;;14.20;10.43;;;18.40;45.70;;;;;;5055393;28;20559;-91
2021/09/21 07:25:05;;;;;;;19.30;9.73;;;18.70;45.00;;;;;;5056132;28;20444;-92
2021/09/21 07:27:32;;;;;;;13.63;9.03;;;18.50;44.20;;;;;;5056103;28;20545;-92
2021/09/21 07:29:59;;;;;;;13.47;10.30;;;18.40;44.30;;;;;;5055868;28;20546;-92
2021/09/21 07:32:26;;;;;;;11.30;9.13;;;18.50;43.10;;;;;;5056006;28;20452;-91
2021/09/21 07:34:53;;;;;;;16.93;8.67;;;18.30;43.00;;;;;;5056221;28;20436;-91
2021/09/21 07:37:22;;;;;;;15.27;9.20;;;17.60;44.10;;;;;;5056327;28;20519;-91
2021/09/21 07:39:49;;;;;;;13.90;8.93;;;18.10;43.30;;;;;;5055086;28;20452;-91
2021/09/21 07:42:17;;;;;;;12.00;9.30;;;17.40;44.30;;;;;;5055996;28;20549;-91
2021/09/21 07:44:44;;;;;;;19.60;9.50;;;17.00;44.20;;;;;;5056564;28;20456;-92
2021/09/21 07:47:11;;;;;;;19.20;9.87;;;17.10;46.00;;;;;;5057344;28;20435;-91
2021/09/21 07:49:38;;;;;;;13.63;8.63;;;17.00;44.50;;;;;;5058959;28;20817;-92
2021/09/21 07:52:05;;;;;;;11.40;8.47;;;17.30;44.80;;;;;;5068292;28;20455;-91
2021/09/21 07:54:33;;;;;;;12.27;8.47;;;17.60;42.50;;;;;;5071417;28;20451;-90
2021/09/21 07:57:01;;;;;;;13.30;8.90;;;17.50;42.30;;;;;;5071227;28;20502;-91
2021/09/21 07:59:28;;;;;;;12.97;8.47;;;17.70;42.40;;;;;;5072245;28;20467;-87
2021/09/21 08:01:55;;;;;;;13.27;8.73;;;18.00;42.70;;;;;;5073368;28;20483;-90
2021/09/21 08:04:22;;;;;;;10.80;8.13;;;18.10;42.30;;;;;;5074245;28;20519;-89
2021/09/21 08:06:49;;;;;;;15.70;9.50;;;18.50;41.10;;;;;;5072202;28;20453;-91
2021/09/21 08:09:16;;;;;;;14.83;8.87;;;18.90;40.10;;;;;;5058016;28;20867;-91
2021/09/21 08:11:45;;;;;;;13.00;8.37;;;19.10;39.20;;;;;;5057693;28;20807;-91
2021/09/21 08:14:11;;;;;;;11.93;8.70;;;19.10;40.20;;;;;;5056798;28;20452;-91
2021/09/21 08:16:39;;;;;;;14.23;8.67;;;18.50;39.60;;;;;;5055926;28;20452;-91
2021/09/21 08:19:05;;;;;;;18.33;8.80;;;17.70;40.80;;;;;;5057925;28;20459;-92
2021/09/21 08:21:32;;;;;;;15.60;8.40;;;18.00;41.70;;;;;;5060954;28;20635;-91
2021/09/21 08:23:59;;;;;;;16.30;8.00;;;18.50;40.50;;;;;;5059881;28;20898;-91
2021/09/21 08:26:26;;;;;;;11.80;7.73;;;18.80;39.30;;;;;;5060537;28;20476;-91
2021/09/21 08:28:54;;;;;;;12.00;7.57;;;18.70;38.50;;;;;;5060662;28;20459;-91
2021/09/21 08:31:21;;;;;;;10.83;7.90;;;18.80;38.60;;;;;;5059601;28;20857;-91
2021/09/21 08:33:48;;;;;;;13.90;8.53;;;19.00;39.90;;;;;;5059716;28;20444;-91
2021/09/21 08:36:15;;;;;;;11.50;8.00;;;18.70;37.00;;;;;;5059338;28;20432;-91
2021/09/21 08:38:42;;;;;;;14.33;7.50;;;18.00;38.50;;;;;;5059800;28;20436;-91
2021/09/21 08:41:09;;;;;;;11.80;7.97;;;18.00;38.70;;;;;;5060305;28;20522;-91
2021/09/21 08:43:36;;;;;;;21.83;7.97;;;18.10;38.50;;;;;;5059415;28;20950;-91
2021/09/21 08:46:04;;;;;;;9.33;6.90;;;18.30;39.10;;;;;;5066111;28;20436;-91
2021/09/21 08:48:31;;;;;;;11.57;8.07;;;18.00;37.40;;;;;;5064673;28;20523;-91
2021/09/21 08:50:58;;;;;;;13.13;7.70;;;17.50;39.10;;;;;;5060986;28;20472;-91
2021/09/21 08:53:25;;;;;;;9.53;7.17;;;17.70;39.20;;;;;;5059660;28;20459;-91
2021/09/21 08:55:52;;;;;;;9.07;7.53;;;18.00;39.40;;;;;;5058029;28;20439;-91
2021/09/21 08:58:24;;;;;;;17.27;7.20;;;18.50;37.70;;;;;;5058920;28;20432;-91
2021/09/21 09:00:50;;;;;;;8.40;6.20;;;18.70;37.60;;;;;;5058151;28;20977;-91
2021/09/21 09:03:19;;;;;;;10.07;8.00;;;18.90;37.30;;;;;;5058036;28;20452;-92
2021/09/21 09:05:48;;;;;;;10.60;7.30;;;18.90;37.20;;;;;;5058207;28;20484;-91
2021/09/21 09:08:27;;;;;;;10.37;7.73;;;19.40;36.70;;;;;;5057278;28;20482;-91
2021/09/21 09:10:54;;;;;;;16.93;7.60;;;19.50;36.00;;;;;;5064499;28;20483;-91
2021/09/21 09:13:21;;;;;;;14.17;7.00;;;19.60;36.60;;;;;;5057212;28;20486;-91
2021/09/21 09:15:56;;;;;;;10.63;6.60;;;19.50;35.70;;;;;;5058292;28;20458;-92
2021/09/21 09:18:29;;;;;;;15.03;6.50;;;19.60;35.10;;;;;;5057554;28;20464;-93
2021/09/21 09:21:00;;;;;;;14.53;7.90;;;19.70;37.00;;;;;;5056699;28;20890;-91
2021/09/21 09:23:26;;;;;;;9.80;6.10;;;19.70;34.50;;;;;;5056738;28;20413;-91
2021/09/21 09:25:53;;;;;;;11.00;7.73;;;19.00;36.30;;;;;;5057757;28;20483;-92
2021/09/21 09:28:23;;;;;;;8.73;6.83;;;18.70;35.50;;;;;;5056691;28;20544;-92
2021/09/21 09:30:52;;;;;;;12.50;7.33;;;18.80;36.10;;;;;;5058385;28;20494;-91
2021/09/21 09:33:20;;;;;;;11.43;6.87;;;18.90;36.20;;;;;;5059563;28;20459;-91
2021/09/21 09:35:51;;;;;;;7.97;6.33;;;18.90;36.20;;;;;;5057853;28;20519;-91
2021/09/21 09:38:21;;;;;;;8.80;5.83;;;18.80;35.40;;;;;;5057953;28;20459;-91
2021/09/21 09:40:51;;;;;;;24.63;7.37;;;19.40;36.70;;;;;;5057762;28;20473;-92
2021/09/21 09:43:20;;;;;;;12.33;7.20;;;20.00;34.00;;;;;;5057613;28;20472;-91
2021/09/21 09:45:48;;;;;;;11.50;7.17;;;20.40;32.80;;;;;;5057686;28;20487;-92
2021/09/21 09:48:20;;;;;;;7.77;6.40;;;20.60;32.10;;;;;;5058013;28;20447;-92
2021/09/21 09:50:51;;;;;;;12.10;6.20;;;20.40;32.60;;;;;;5058082;28;20472;-91
2021/09/21 09:53:20;;;;;;;11.93;6.47;;;19.70;33.50;;;;;;5058962;28;20513;-92
2021/09/21 09:55:48;;;;;;;10.83;6.00;;;20.20;35.00;;;;;;5057350;28;20964;-92
2021/09/21 09:58:16;;;;;;;8.83;5.80;;;20.10;33.80;;;;;;5058044;28;20467;-91
2021/09/21 10:00:43;;;;;;;8.30;6.07;;;19.70;35.00;;;;;;5056861;28;20500;-91
2021/09/21 10:03:11;;;;;;;7.90;6.60;;;19.80;34.40;;;;;;5057698;28;20476;-89
2021/09/21 10:05:39;;;;;;;6.80;5.93;;;19.80;34.80;;;;;;5057831;28;20409;-91
2021/09/21 10:08:09;;;;;;;8.80;6.60;;;20.20;34.80;;;;;;5058143;28;20535;-92
2021/09/21 10:10:39;;;;;;;8.87;6.50;;;20.00;33.80;;;;;;5057673;28;20535;-92
2021/09/21 10:13:10;;;;;;;11.43;6.60;;;20.40;33.20;;;;;;5058805;28;20498;-91
2021/09/21 10:15:39;;;;;;;7.83;6.33;;;20.50;33.50;;;;;;5059326;28;20769;-91
2021/09/21 10:18:15;;;;;;;7.30;5.93;;;20.50;34.30;;;;;;5059374;28;20444;-91
2021/09/21 10:20:44;;;;;;;9.20;5.90;;;20.90;32.00;;;;;;5060500;28;20981;-91
2021/09/21 10:23:13;;;;;;;9.57;5.80;;;20.30;33.00;;;;;;5059490;28;20476;-91
2021/09/21 10:25:42;;;;;;;8.00;6.60;;;19.60;36.40;;;;;;5059765;28;20991;-92
2021/09/21 10:28:14;;;;;;;9.63;6.30;;;19.90;33.70;;;;;;5059152;28;20441;-91
2021/09/21 10:30:53;;;;;;;10.40;7.00;;;20.50;33.00;;;;;;5059747;28;20492;-92
2021/09/21 10:33:30;;;;;;;10.90;6.40;;;20.70;33.00;;;;;;5062990;28;20542;-92
2021/09/21 10:35:57;;;;;;;8.70;6.70;;;20.50;33.30;;;;;;5061292;28;20419;-91
2021/09/21 10:38:25;;;;;;;8.27;6.93;;;20.30;32.10;;;;;;5060443;28;20448;-91
2021/09/21 10:41:02;;;;;;;10.20;6.70;;;20.10;32.80;;;;;;5058903;28;20538;-93
2021/09/21 10:43:31;;;;;;;8.90;6.43;;;20.00;32.70;;;;;;5060157;28;20475;-92
2021/09/21 10:46:08;;;;;;;10.40;7.10;;;20.10;32.80;;;;;;5059774;28;20514;-92
2021/09/21 10:48:37;;;;;;;9.57;7.13;;;19.80;36.10;;;;;;5058113;28;20928;-92
2021/09/21 10:51:05;;;;;;;11.00;6.83;;;20.40;33.40;;;;;;5059223;28;20476;-91
2021/09/21 10:53:34;;;;;;;10.37;7.57;;;21.00;32.50;;;;;;5056773;28;20449;-91
2021/09/21 10:56:04;;;;;;;8.60;6.70;;;20.90;32.00;;;;;;5057775;28;20478;-92
2021/09/21 10:58:31;;;;;;;8.00;6.30;;;21.40;32.30;;;;;;5056517;28;20500;-91
2021/09/21 11:00:59;;;;;;;8.43;6.37;;;20.90;32.40;;;;;;5056218;28;20468;-91
2021/09/21 11:03:27;;;;;;;13.00;7.37;;;20.00;34.10;;;;;;5056791;28;20575;-91
2021/09/21 11:05:55;;;;;;;10.13;6.90;;;19.60;34.70;;;;;;5056739;28;20506;-91
2021/09/21 11:08:31;;;;;;;12.13;6.03;;;19.50;35.30;;;;;;5056476;28;20498;-91
2021/09/21 11:11:00;;;;;;;8.87;7.57;;;20.00;35.80;;;;;;5056517;28;20539;-91
2021/09/21 11:13:32;;;;;;;8.63;6.87;;;20.70;34.00;;;;;;5055778;28;20498;-91
2021/09/21 11:16:01;;;;;;;10.47;7.27;;;21.20;32.80;;;;;;5054933;28;20436;-91
2021/09/21 11:18:28;;;;;;;10.37;7.83;;;21.60;32.00;;;;;;5054416;28;20484;-91
2021/09/21 11:20:57;;;;;;;13.57;7.27;;;21.30;32.30;;;;;;5055380;28;20468;-91
2021/09/21 11:23:26;;;;;;;11.40;7.70;;;20.60;32.50;;;;;;5054964;28;20533;-92
2021/09/21 11:25:55;;;;;;;11.13;7.37;;;20.30;34.00;;;;;;5055688;28;20548;-92
2021/09/21 11:28:23;;;;;;;14.20;8.30;;;20.90;33.90;;;;;;5053628;28;20452;-92
2021/09/21 11:30:50;;;;;;;13.33;6.77;;;21.60;33.00;;;;;;5059259;28;20500;-91
2021/09/21 11:33:20;;;;;;;7.60;6.10;;;21.90;31.50;;;;;;5061501;28;20472;-91
2021/09/21 11:35:49;;;;;;;8.60;6.50;;;22.10;32.70;;;;;;5060329;28;20416;-92
2021/09/21 11:38:16;;;;;;;9.60;6.70;;;22.20;30.60;;;;;;5058814;28;20472;-91
2021/09/21 11:40:44;;;;;;;9.23;7.03;;;22.10;30.70;;;;;;5057804;28;20525;-92
2021/09/21 11:43:12;;;;;;;8.50;6.83;;;21.30;31.00;;;;;;5062596;28;20491;-92
2021/09/21 11:45:43;;;;;;;11.80;7.50;;;20.80;33.30;;;;;;5055735;28;20452;-92
2021/09/21 11:48:11;;;;;;;7.57;5.40;;;20.70;32.80;;;;;;5055742;28;20472;-92
2021/09/21 11:50:38;;;;;;;7.23;6.20;;;20.90;33.70;;;;;;5055901;28;20845;-91
2021/09/21 11:53:06;;;;;;;10.77;6.93;;;21.00;32.50;;;;;;5055687;28;20447;-92
2021/09/21 11:55:38;;;;;;;8.63;6.93;;;21.40;32.00;;;;;;5058447;28;20475;-91
2021/09/21 11:58:06;;;;;;;10.90;6.83;;;21.30;31.00;;;;;;5059078;28;20523;-92
2021/09/21 12:00:36;;;;;;;10.23;7.43;;;20.90;32.90;;;;;;5059435;28;20965;-92
2021/09/21 12:03:06;;;;;;;7.97;6.97;;;20.70;31.70;;;;;;5061633;28;20499;-91
2021/09/21 12:05:35;;;;;;;10.77;7.03;;;20.00;33.00;;;;;;5060544;28;20888;-91
2021/09/21 12:08:05;;;;;;;10.07;7.33;;;20.50;33.60;;;;;;5059960;28;20531;-92
2021/09/21 12:10:32;;;;;;;10.30;7.30;;;20.70;32.70;;;;;;5059570;28;20482;-91
2021/09/21 12:13:05;;;;;;;11.00;7.50;;;20.70;33.20;;;;;;5058495;28;20523;-93
2021/09/21 12:15:33;;;;;;;9.10;7.57;;;21.10;31.30;;;;;;5059326;28;20471;-91
2021/09/21 12:18:02;;;;;;;13.07;7.50;;;21.30;31.50;;;;;;5058350;28;20448;-92
2021/09/21 12:20:32;;;;;;;11.60;6.23;;;21.10;31.60;;;;;;5058233;28;20524;-91
2021/09/21 12:23:00;;;;;;;17.87;8.60;;;21.70;31.30;;;;;;5059695;28;20510;-92
2021/09/21 12:25:32;;;;;;;14.83;7.17;;;21.80;31.40;;;;;;5059590;28;20483;-91
2021/09/21 12:28:00;;;;;;;9.07;6.57;;;21.00;32.00;;;;;;5061368;28;20436;-92
2021/09/21 12:30:30;;;;;;;11.83;6.37;;;21.40;32.60;;;;;;5058756;28;20808;-92
2021/09/21 12:32:58;;;;;;;7.57;6.47;;;21.50;32.00;;;;;;5059428;28;20859;-92
2021/09/21 12:35:30;;;;;;;18.77;7.40;;;22.20;31.20;;;;;;5058664;28;20506;-92
2021/09/21 12:38:06;;;;;;;7.90;6.67;;;22.10;30.10;;;;;;5058955;28;20413;-92
2021/09/21 12:40:34;;;;;;;13.40;8.27;;;21.50;30.00;;;;;;5057670;28;20977;-91
2021/09/21 12:43:05;;;;;;;9.40;7.47;;;20.80;31.60;;;;;;5057752;28;20569;-91
2021/09/21 12:45:33;;;;;;;8.00;6.67;;;20.00;32.10;;;;;;5057607;28;20439;-91
2021/09/21 12:48:03;;;;;;;8.70;6.20;;;20.50;33.10;;;;;;5058166;28;20445;-91
2021/09/21 12:50:31;;;;;;;10.00;7.67;;;21.50;33.30;;;;;;5057483;28;20452;-91